sensor_id;sensor_type;location;lat;lon;timestamp;temperature;humidity
8684;DHT22;4379;59.744;18.206;2023-04-24T00:00:49;3.90;99.90
8684;DHT22;4379;59.744;18.206;2023-04-24T00:03:18;3.80;99.90
8684;DHT22;4379;59.744;18.206;2023-04-24T00:05:48;3.90;99.90
8684;DHT22;4379;59.744;18.206;2023-04-24T00:08:15;4.00;99.90
8684;DHT22;4379;59.744;18.206;2023-04-24T00:10:43;4.00;99.90
8684;DHT22;4379;59.744;18.206;2023-04-24T00:13:10;3.90;99.90
8684;DHT22;4379;59.744;18.206;2023-04-24T00:15:38;4.00;99.90
8684;DHT22;4379;59.744;18.206;2023-04-24T00:18:05;4.10;99.90
8684;DHT22;4379;59.744;18.206;2023-04-24T00:20:34;4.10;99.90
8684;DHT22;4379;59.744;18.206;2023-04-24T00:23:02;4.00;99.90
8684;DHT22;4379;59.744;18.206;2023-04-24T00:25:30;4.00;99.90
8684;DHT22;4379;59.744;18.206;2023-04-24T00:27:58;4.00;99.90
8684;DHT22;4379;59.744;18.206;2023-04-24T00:30:25;3.90;99.90
8684;DHT22;4379;59.744;18.206;2023-04-24T00:32:52;3.90;99.90
8684;DHT22;4379;59.744;18.206;2023-04-24T00:35:20;3.90;99.90
8684;DHT22;4379;59.744;18.206;2023-04-24T00:37:47;3.90;99.90
8684;DHT22;4379;59.744;18.206;2023-04-24T00:40:15;3.90;99.90
8684;DHT22;4379;59.744;18.206;2023-04-24T00:42:43;4.00;99.90
8684;DHT22;4379;59.744;18.206;2023-04-24T00:45:12;4.00;99.90
8684;DHT22;4379;59.744;18.206;2023-04-24T00:47:41;3.90;99.90
8684;DHT22;4379;59.744;18.206;2023-04-24T00:50:09;3.80;99.90
8684;DHT22;4379;59.744;18.206;2023-04-24T00:52:38;3.80;99.90
8684;DHT22;4379;59.744;18.206;2023-04-24T00:55:08;3.80;99.90
8684;DHT22;4379;59.744;18.206;2023-04-24T00:57:36;3.80;99.90
8684;DHT22;4379;59.744;18.206;2023-04-24T01:00:05;3.80;99.90
8684;DHT22;4379;59.744;18.206;2023-04-24T01:02:34;3.70;99.90
8684;DHT22;4379;59.744;18.206;2023-04-24T01:05:02;3.70;99.90
8684;DHT22;4379;59.744;18.206;2023-04-24T01:07:30;3.60;99.90
8684;DHT22;4379;59.744;18.206;2023-04-24T01:09:58;3.70;99.90
8684;DHT22;4379;59.744;18.206;2023-04-24T01:12:26;3.80;99.90
8684;DHT22;4379;59.744;18.206;2023-04-24T01:14:56;3.70;99.90
8684;DHT22;4379;59.744;18.206;2023-04-24T01:17:24;3.80;99.90
8684;DHT22;4379;59.744;18.206;2023-04-24T01:19:52;3.80;99.90
8684;DHT22;4379;59.744;18.206;2023-04-24T01:22:23;3.80;99.90
8684;DHT22;4379;59.744;18.206;2023-04-24T01:24:52;3.80;99.90
8684;DHT22;4379;59.744;18.206;2023-04-24T01:27:20;3.60;99.90
8684;DHT22;4379;59.744;18.206;2023-04-24T01:29:47;3.70;99.90
8684;DHT22;4379;59.744;18.206;2023-04-24T01:32:16;3.60;99.90
8684;DHT22;4379;59.744;18.206;2023-04-24T01:34:44;3.60;99.90
8684;DHT22;4379;59.744;18.206;2023-04-24T01:37:12;3.60;99.90
8684;DHT22;4379;59.744;18.206;2023-04-24T01:39:39;3.60;99.90
8684;DHT22;4379;59.744;18.206;2023-04-24T01:42:08;3.70;99.90
8684;DHT22;4379;59.744;18.206;2023-04-24T01:44:35;3.70;99.90
8684;DHT22;4379;59.744;18.206;2023-04-24T01:47:03;3.60;99.90
8684;DHT22;4379;59.744;18.206;2023-04-24T01:49:31;3.50;99.90
8684;DHT22;4379;59.744;18.206;2023-04-24T01:52:00;3.40;99.90
8684;DHT22;4379;59.744;18.206;2023-04-24T01:54:27;3.40;99.90
8684;DHT22;4379;59.744;18.206;2023-04-24T01:56:55;3.40;99.90
8684;DHT22;4379;59.744;18.206;2023-04-24T01:59:23;3.40;99.90
8684;DHT22;4379;59.744;18.206;2023-04-24T02:01:52;3.50;99.90
8684;DHT22;4379;59.744;18.206;2023-04-24T02:04:19;3.50;99.90
8684;DHT22;4379;59.744;18.206;2023-04-24T02:06:47;3.60;99.90
8684;DHT22;4379;59.744;18.206;2023-04-24T02:09:14;3.50;99.90
8684;DHT22;4379;59.744;18.206;2023-04-24T02:11:42;3.50;99.90
8684;DHT22;4379;59.744;18.206;2023-04-24T02:14:09;3.60;99.90
8684;DHT22;4379;59.744;18.206;2023-04-24T02:16:36;3.50;99.90
8684;DHT22;4379;59.744;18.206;2023-04-24T02:19:04;3.50;99.90
8684;DHT22;4379;59.744;18.206;2023-04-24T02:21:32;3.50;99.90
8684;DHT22;4379;59.744;18.206;2023-04-24T02:23:59;3.50;99.90
8684;DHT22;4379;59.744;18.206;2023-04-24T02:26:27;3.30;99.90
8684;DHT22;4379;59.744;18.206;2023-04-24T02:28:55;3.30;99.90
8684;DHT22;4379;59.744;18.206;2023-04-24T02:31:22;3.20;99.90
8684;DHT22;4379;59.744;18.206;2023-04-24T02:33:50;3.10;99.90
8684;DHT22;4379;59.744;18.206;2023-04-24T02:36:17;3.20;99.90
8684;DHT22;4379;59.744;18.206;2023-04-24T02:38:44;3.10;99.90
8684;DHT22;4379;59.744;18.206;2023-04-24T02:41:12;3.10;99.90
8684;DHT22;4379;59.744;18.206;2023-04-24T02:43:40;3.10;99.90
8684;DHT22;4379;59.744;18.206;2023-04-24T02:46:07;3.10;99.90
8684;DHT22;4379;59.744;18.206;2023-04-24T02:48:34;3.20;99.90
8684;DHT22;4379;59.744;18.206;2023-04-24T02:51:02;3.20;99.90
8684;DHT22;4379;59.744;18.206;2023-04-24T02:53:30;3.20;99.90
8684;DHT22;4379;59.744;18.206;2023-04-24T02:55:58;3.20;99.90
8684;DHT22;4379;59.744;18.206;2023-04-24T02:58:25;3.10;99.90
8684;DHT22;4379;59.744;18.206;2023-04-24T03:00:59;3.10;99.90
8684;DHT22;4379;59.744;18.206;2023-04-24T03:03:27;3.10;99.90
8684;DHT22;4379;59.744;18.206;2023-04-24T03:05:55;3.00;99.90
8684;DHT22;4379;59.744;18.206;2023-04-24T03:08:23;3.10;99.90
8684;DHT22;4379;59.744;18.206;2023-04-24T03:10:53;3.20;99.90
8684;DHT22;4379;59.744;18.206;2023-04-24T03:13:20;3.20;99.90
8684;DHT22;4379;59.744;18.206;2023-04-24T03:15:47;3.20;99.90
8684;DHT22;4379;59.744;18.206;2023-04-24T03:18:15;3.20;99.90
8684;DHT22;4379;59.744;18.206;2023-04-24T03:20:45;3.20;99.90
8684;DHT22;4379;59.744;18.206;2023-04-24T03:23:12;3.10;99.90
8684;DHT22;4379;59.744;18.206;2023-04-24T03:25:39;3.00;99.90
8684;DHT22;4379;59.744;18.206;2023-04-24T03:28:09;2.90;99.90
8684;DHT22;4379;59.744;18.206;2023-04-24T03:30:37;3.10;99.90
8684;DHT22;4379;59.744;18.206;2023-04-24T03:33:04;3.10;99.90
8684;DHT22;4379;59.744;18.206;2023-04-24T03:35:32;3.10;99.90
8684;DHT22;4379;59.744;18.206;2023-04-24T03:37:59;3.20;99.90
8684;DHT22;4379;59.744;18.206;2023-04-24T03:40:27;2.80;99.90
8684;DHT22;4379;59.744;18.206;2023-04-24T03:42:56;2.70;99.90
8684;DHT22;4379;59.744;18.206;2023-04-24T03:45:24;2.80;99.90
8684;DHT22;4379;59.744;18.206;2023-04-24T03:47:51;2.80;99.90
8684;DHT22;4379;59.744;18.206;2023-04-24T03:50:18;2.90;99.90
8684;DHT22;4379;59.744;18.206;2023-04-24T03:52:46;3.00;99.90
8684;DHT22;4379;59.744;18.206;2023-04-24T03:55:14;3.00;99.90
8684;DHT22;4379;59.744;18.206;2023-04-24T03:57:41;3.00;99.90
8684;DHT22;4379;59.744;18.206;2023-04-24T04:00:09;2.90;99.90
8684;DHT22;4379;59.744;18.206;2023-04-24T04:02:37;2.80;99.90
8684;DHT22;4379;59.744;18.206;2023-04-24T04:05:05;2.80;99.90
8684;DHT22;4379;59.744;18.206;2023-04-24T04:07:32;2.90;99.90
8684;DHT22;4379;59.744;18.206;2023-04-24T04:10:00;2.90;99.90
8684;DHT22;4379;59.744;18.206;2023-04-24T04:12:27;2.80;99.90
8684;DHT22;4379;59.744;18.206;2023-04-24T04:14:54;2.80;99.90
8684;DHT22;4379;59.744;18.206;2023-04-24T04:17:22;3.00;99.90
8684;DHT22;4379;59.744;18.206;2023-04-24T04:19:49;3.00;99.90
8684;DHT22;4379;59.744;18.206;2023-04-24T04:22:17;3.00;99.90
8684;DHT22;4379;59.744;18.206;2023-04-24T04:24:45;3.00;99.90
8684;DHT22;4379;59.744;18.206;2023-04-24T04:27:13;2.80;99.90
8684;DHT22;4379;59.744;18.206;2023-04-24T04:29:40;2.90;99.90
8684;DHT22;4379;59.744;18.206;2023-04-24T04:32:09;2.60;99.90
8684;DHT22;4379;59.744;18.206;2023-04-24T04:34:37;2.50;99.90
8684;DHT22;4379;59.744;18.206;2023-04-24T04:37:04;2.40;99.90
8684;DHT22;4379;59.744;18.206;2023-04-24T04:39:33;2.40;99.90
8684;DHT22;4379;59.744;18.206;2023-04-24T04:42:00;2.50;99.90
8684;DHT22;4379;59.744;18.206;2023-04-24T04:44:27;2.60;99.90
8684;DHT22;4379;59.744;18.206;2023-04-24T04:46:56;2.80;99.90
8684;DHT22;4379;59.744;18.206;2023-04-24T04:49:24;2.80;99.90
8684;DHT22;4379;59.744;18.206;2023-04-24T04:51:51;2.60;99.90
8684;DHT22;4379;59.744;18.206;2023-04-24T04:54:20;2.70;99.90
8684;DHT22;4379;59.744;18.206;2023-04-24T04:56:50;2.70;99.90
8684;DHT22;4379;59.744;18.206;2023-04-24T04:59:17;2.80;99.90
8684;DHT22;4379;59.744;18.206;2023-04-24T05:01:45;2.50;99.90
8684;DHT22;4379;59.744;18.206;2023-04-24T05:04:12;2.50;99.90
8684;DHT22;4379;59.744;18.206;2023-04-24T05:06:40;2.60;99.90
8684;DHT22;4379;59.744;18.206;2023-04-24T05:09:07;2.80;99.90
8684;DHT22;4379;59.744;18.206;2023-04-24T05:11:35;2.80;99.90
8684;DHT22;4379;59.744;18.206;2023-04-24T05:14:02;3.00;99.90
8684;DHT22;4379;59.744;18.206;2023-04-24T05:16:29;3.10;99.90
8684;DHT22;4379;59.744;18.206;2023-04-24T05:18:57;3.10;99.90
8684;DHT22;4379;59.744;18.206;2023-04-24T05:21:25;3.10;99.90
8684;DHT22;4379;59.744;18.206;2023-04-24T05:23:56;3.10;99.90
8684;DHT22;4379;59.744;18.206;2023-04-24T05:26:24;3.10;99.90
8684;DHT22;4379;59.744;18.206;2023-04-24T05:28:51;3.10;99.90
8684;DHT22;4379;59.744;18.206;2023-04-24T05:31:21;2.90;99.90
8684;DHT22;4379;59.744;18.206;2023-04-24T05:33:49;3.00;99.90
8684;DHT22;4379;59.744;18.206;2023-04-24T05:36:16;2.80;99.90
8684;DHT22;4379;59.744;18.206;2023-04-24T05:38:44;2.80;99.90
8684;DHT22;4379;59.744;18.206;2023-04-24T05:41:11;2.80;99.90
8684;DHT22;4379;59.744;18.206;2023-04-24T05:43:38;3.00;99.90
8684;DHT22;4379;59.744;18.206;2023-04-24T05:46:06;2.80;99.90
8684;DHT22;4379;59.744;18.206;2023-04-24T05:48:33;2.60;99.90
8684;DHT22;4379;59.744;18.206;2023-04-24T05:51:01;2.60;99.90
8684;DHT22;4379;59.744;18.206;2023-04-24T05:53:28;2.80;99.90
8684;DHT22;4379;59.744;18.206;2023-04-24T05:55:56;2.90;99.90
8684;DHT22;4379;59.744;18.206;2023-04-24T05:58:23;2.80;99.90
8684;DHT22;4379;59.744;18.206;2023-04-24T06:00:51;2.90;99.90
8684;DHT22;4379;59.744;18.206;2023-04-24T06:03:18;3.00;99.90
8684;DHT22;4379;59.744;18.206;2023-04-24T06:05:46;3.10;99.90
8684;DHT22;4379;59.744;18.206;2023-04-24T06:08:13;3.30;99.90
8684;DHT22;4379;59.744;18.206;2023-04-24T06:10:41;3.40;99.90
8684;DHT22;4379;59.744;18.206;2023-04-24T06:13:08;3.40;99.90
8684;DHT22;4379;59.744;18.206;2023-04-24T06:15:35;3.30;99.90
8684;DHT22;4379;59.744;18.206;2023-04-24T06:18:03;3.40;99.90
8684;DHT22;4379;59.744;18.206;2023-04-24T06:20:31;3.50;99.90
8684;DHT22;4379;59.744;18.206;2023-04-24T06:22:58;3.20;99.90
8684;DHT22;4379;59.744;18.206;2023-04-24T06:25:26;3.10;99.90
8684;DHT22;4379;59.744;18.206;2023-04-24T06:27:54;3.20;99.90
8684;DHT22;4379;59.744;18.206;2023-04-24T06:30:22;3.20;99.90
8684;DHT22;4379;59.744;18.206;2023-04-24T06:32:50;3.00;99.90
8684;DHT22;4379;59.744;18.206;2023-04-24T06:35:18;3.00;99.90
8684;DHT22;4379;59.744;18.206;2023-04-24T06:37:46;3.20;99.90
8684;DHT22;4379;59.744;18.206;2023-04-24T06:40:13;3.40;99.90
8684;DHT22;4379;59.744;18.206;2023-04-24T06:42:41;3.40;99.90
8684;DHT22;4379;59.744;18.206;2023-04-24T06:45:09;3.50;99.90
8684;DHT22;4379;59.744;18.206;2023-04-24T06:47:37;3.50;99.90
8684;DHT22;4379;59.744;18.206;2023-04-24T06:50:05;3.50;99.90
8684;DHT22;4379;59.744;18.206;2023-04-24T06:52:33;3.40;99.90
8684;DHT22;4379;59.744;18.206;2023-04-24T06:55:02;3.40;99.90
8684;DHT22;4379;59.744;18.206;2023-04-24T06:57:31;3.60;99.90
8684;DHT22;4379;59.744;18.206;2023-04-24T06:59:59;3.60;99.90
8684;DHT22;4379;59.744;18.206;2023-04-24T07:02:26;3.40;99.90
8684;DHT22;4379;59.744;18.206;2023-04-24T07:04:54;3.50;99.90
8684;DHT22;4379;59.744;18.206;2023-04-24T07:07:21;3.70;99.90
8684;DHT22;4379;59.744;18.206;2023-04-24T07:09:51;4.00;99.90
8684;DHT22;4379;59.744;18.206;2023-04-24T07:12:18;3.90;99.90
8684;DHT22;4379;59.744;18.206;2023-04-24T07:14:47;4.10;99.90
8684;DHT22;4379;59.744;18.206;2023-04-24T07:17:15;4.20;99.90
8684;DHT22;4379;59.744;18.206;2023-04-24T07:19:42;4.40;99.90
8684;DHT22;4379;59.744;18.206;2023-04-24T07:22:10;4.60;99.90
8684;DHT22;4379;59.744;18.206;2023-04-24T07:24:44;4.30;99.90
8684;DHT22;4379;59.744;18.206;2023-04-24T07:27:11;4.30;99.90
8684;DHT22;4379;59.744;18.206;2023-04-24T07:29:42;4.40;99.90
8684;DHT22;4379;59.744;18.206;2023-04-24T07:32:10;4.40;99.90
8684;DHT22;4379;59.744;18.206;2023-04-24T07:34:37;4.30;99.90
8684;DHT22;4379;59.744;18.206;2023-04-24T07:37:04;3.80;99.90
8684;DHT22;4379;59.744;18.206;2023-04-24T07:39:32;4.10;99.90
8684;DHT22;4379;59.744;18.206;2023-04-24T07:41:59;4.00;99.90
8684;DHT22;4379;59.744;18.206;2023-04-24T07:44:29;4.30;99.90
8684;DHT22;4379;59.744;18.206;2023-04-24T07:46:56;4.00;99.90
8684;DHT22;4379;59.744;18.206;2023-04-24T07:49:24;4.20;99.90
8684;DHT22;4379;59.744;18.206;2023-04-24T07:51:52;4.00;99.90
8684;DHT22;4379;59.744;18.206;2023-04-24T07:54:19;3.90;99.90
8684;DHT22;4379;59.744;18.206;2023-04-24T07:56:47;4.00;99.90
8684;DHT22;4379;59.744;18.206;2023-04-24T07:59:15;4.20;99.90
8684;DHT22;4379;59.744;18.206;2023-04-24T08:01:43;4.10;99.90
8684;DHT22;4379;59.744;18.206;2023-04-24T08:04:10;4.30;99.90
8684;DHT22;4379;59.744;18.206;2023-04-24T08:06:38;4.40;99.90
8684;DHT22;4379;59.744;18.206;2023-04-24T08:09:06;4.40;99.90
8684;DHT22;4379;59.744;18.206;2023-04-24T08:11:33;4.40;99.90
8684;DHT22;4379;59.744;18.206;2023-04-24T08:14:00;4.50;99.90
8684;DHT22;4379;59.744;18.206;2023-04-24T08:16:28;4.50;99.90
8684;DHT22;4379;59.744;18.206;2023-04-24T08:18:55;4.60;99.90
8684;DHT22;4379;59.744;18.206;2023-04-24T08:21:23;4.60;99.90
8684;DHT22;4379;59.744;18.206;2023-04-24T08:23:50;4.90;99.90
8684;DHT22;4379;59.744;18.206;2023-04-24T08:26:18;5.20;99.90
8684;DHT22;4379;59.744;18.206;2023-04-24T08:28:45;5.00;99.90
8684;DHT22;4379;59.744;18.206;2023-04-24T08:31:13;4.80;99.90
8684;DHT22;4379;59.744;18.206;2023-04-24T08:33:40;4.80;99.90
8684;DHT22;4379;59.744;18.206;2023-04-24T08:36:08;4.80;99.90
8684;DHT22;4379;59.744;18.206;2023-04-24T08:38:35;5.00;99.90
8684;DHT22;4379;59.744;18.206;2023-04-24T08:41:03;5.00;99.90
8684;DHT22;4379;59.744;18.206;2023-04-24T08:43:33;4.90;99.90
8684;DHT22;4379;59.744;18.206;2023-04-24T08:46:04;5.20;99.90
8684;DHT22;4379;59.744;18.206;2023-04-24T08:48:38;5.20;99.90
8684;DHT22;4379;59.744;18.206;2023-04-24T08:51:09;5.20;99.90
8684;DHT22;4379;59.744;18.206;2023-04-24T08:53:40;5.40;99.90
8684;DHT22;4379;59.744;18.206;2023-04-24T08:56:07;5.40;99.90
8684;DHT22;4379;59.744;18.206;2023-04-24T08:58:35;5.30;99.90
8684;DHT22;4379;59.744;18.206;2023-04-24T09:01:04;5.40;99.90
8684;DHT22;4379;59.744;18.206;2023-04-24T09:03:33;4.70;99.90
8684;DHT22;4379;59.744;18.206;2023-04-24T09:06:01;4.80;99.90
8684;DHT22;4379;59.744;18.206;2023-04-24T09:08:29;4.60;99.90
8684;DHT22;4379;59.744;18.206;2023-04-24T09:10:58;4.70;99.90
8684;DHT22;4379;59.744;18.206;2023-04-24T09:13:26;5.00;99.90
8684;DHT22;4379;59.744;18.206;2023-04-24T09:15:54;4.70;99.90
8684;DHT22;4379;59.744;18.206;2023-04-24T09:18:24;4.60;99.90
8684;DHT22;4379;59.744;18.206;2023-04-24T09:21:04;4.30;99.90
8684;DHT22;4379;59.744;18.206;2023-04-24T09:23:32;4.70;99.90
8684;DHT22;4379;59.744;18.206;2023-04-24T09:26:01;4.60;99.90
8684;DHT22;4379;59.744;18.206;2023-04-24T09:28:38;4.20;99.90
8684;DHT22;4379;59.744;18.206;2023-04-24T09:31:13;4.40;99.90
8684;DHT22;4379;59.744;18.206;2023-04-24T09:33:56;4.60;99.90
8684;DHT22;4379;59.744;18.206;2023-04-24T09:36:39;4.70;99.90
8684;DHT22;4379;59.744;18.206;2023-04-24T09:39:15;5.00;99.90
8684;DHT22;4379;59.744;18.206;2023-04-24T09:41:54;5.30;99.90
8684;DHT22;4379;59.744;18.206;2023-04-24T09:44:27;5.10;99.90
8684;DHT22;4379;59.744;18.206;2023-04-24T09:46:57;5.10;99.90
8684;DHT22;4379;59.744;18.206;2023-04-24T09:49:26;5.40;99.90
8684;DHT22;4379;59.744;18.206;2023-04-24T09:52:07;5.60;99.90
8684;DHT22;4379;59.744;18.206;2023-04-24T09:54:37;5.90;99.90
8684;DHT22;4379;59.744;18.206;2023-04-24T09:57:08;6.10;99.90
8684;DHT22;4379;59.744;18.206;2023-04-24T09:59:42;5.50;99.90
8684;DHT22;4379;59.744;18.206;2023-04-24T10:02:19;5.50;99.90
8684;DHT22;4379;59.744;18.206;2023-04-24T10:04:57;5.30;99.90
8684;DHT22;4379;59.744;18.206;2023-04-24T10:07:27;5.00;99.90
8684;DHT22;4379;59.744;18.206;2023-04-24T10:09:56;5.10;99.90
8684;DHT22;4379;59.744;18.206;2023-04-24T10:12:24;5.10;99.90
8684;DHT22;4379;59.744;18.206;2023-04-24T10:14:52;5.30;99.90
8684;DHT22;4379;59.744;18.206;2023-04-24T10:17:21;5.20;99.90
8684;DHT22;4379;59.744;18.206;2023-04-24T10:19:49;5.00;99.90
8684;DHT22;4379;59.744;18.206;2023-04-24T10:22:17;5.20;99.90
8684;DHT22;4379;59.744;18.206;2023-04-24T10:24:45;5.50;99.90
8684;DHT22;4379;59.744;18.206;2023-04-24T10:27:15;5.50;99.90
8684;DHT22;4379;59.744;18.206;2023-04-24T10:29:43;5.80;99.90
8684;DHT22;4379;59.744;18.206;2023-04-24T10:32:12;5.90;99.90
8684;DHT22;4379;59.744;18.206;2023-04-24T10:34:39;6.10;99.90
8684;DHT22;4379;59.744;18.206;2023-04-24T10:37:07;6.10;99.90
8684;DHT22;4379;59.744;18.206;2023-04-24T10:39:34;6.10;99.90
8684;DHT22;4379;59.744;18.206;2023-04-24T10:42:14;6.00;99.90
8684;DHT22;4379;59.744;18.206;2023-04-24T10:44:42;6.20;99.90
8684;DHT22;4379;59.744;18.206;2023-04-24T10:47:13;6.10;99.90
8684;DHT22;4379;59.744;18.206;2023-04-24T10:49:41;6.10;99.90
8684;DHT22;4379;59.744;18.206;2023-04-24T10:52:09;5.80;99.90
8684;DHT22;4379;59.744;18.206;2023-04-24T10:54:41;5.60;99.90
8684;DHT22;4379;59.744;18.206;2023-04-24T11:00:12;5.90;99.90
8684;DHT22;4379;59.744;18.206;2023-04-24T11:02:40;5.40;99.90
8684;DHT22;4379;59.744;18.206;2023-04-24T11:05:18;5.50;99.90
8684;DHT22;4379;59.744;18.206;2023-04-24T11:08:14;5.60;99.90
8684;DHT22;4379;59.744;18.206;2023-04-24T11:10:47;5.60;99.90
8684;DHT22;4379;59.744;18.206;2023-04-24T11:13:21;5.70;99.90
8684;DHT22;4379;59.744;18.206;2023-04-24T11:16:15;5.80;99.90
8684;DHT22;4379;59.744;18.206;2023-04-24T11:18:43;5.50;99.90
8684;DHT22;4379;59.744;18.206;2023-04-24T11:21:18;5.50;99.90
8684;DHT22;4379;59.744;18.206;2023-04-24T11:23:46;5.20;99.90
8684;DHT22;4379;59.744;18.206;2023-04-24T11:26:22;5.20;99.90
8684;DHT22;4379;59.744;18.206;2023-04-24T11:28:51;5.10;99.90
8684;DHT22;4379;59.744;18.206;2023-04-24T11:31:39;5.40;99.90
8684;DHT22;4379;59.744;18.206;2023-04-24T11:34:14;5.60;99.90
8684;DHT22;4379;59.744;18.206;2023-04-24T11:36:46;5.40;99.90
8684;DHT22;4379;59.744;18.206;2023-04-24T11:39:15;5.40;99.90
8684;DHT22;4379;59.744;18.206;2023-04-24T11:41:42;5.40;99.90
8684;DHT22;4379;59.744;18.206;2023-04-24T11:44:10;5.10;99.90
8684;DHT22;4379;59.744;18.206;2023-04-24T11:46:38;5.00;99.90
8684;DHT22;4379;59.744;18.206;2023-04-24T11:49:08;5.20;99.90
8684;DHT22;4379;59.744;18.206;2023-04-24T11:51:35;5.40;99.90
8684;DHT22;4379;59.744;18.206;2023-04-24T11:54:19;5.50;99.90
8684;DHT22;4379;59.744;18.206;2023-04-24T11:56:47;5.50;99.90
8684;DHT22;4379;59.744;18.206;2023-04-24T11:59:15;5.50;99.90
8684;DHT22;4379;59.744;18.206;2023-04-24T12:01:44;5.50;99.90
8684;DHT22;4379;59.744;18.206;2023-04-24T12:04:12;5.40;99.90
8684;DHT22;4379;59.744;18.206;2023-04-24T12:06:58;5.60;99.90
8684;DHT22;4379;59.744;18.206;2023-04-24T12:09:26;5.50;99.90
8684;DHT22;4379;59.744;18.206;2023-04-24T12:11:54;5.60;99.90
8684;DHT22;4379;59.744;18.206;2023-04-24T12:14:25;5.50;99.90
8684;DHT22;4379;59.744;18.206;2023-04-24T12:16:52;5.40;99.90
8684;DHT22;4379;59.744;18.206;2023-04-24T12:19:21;5.40;99.90
8684;DHT22;4379;59.744;18.206;2023-04-24T12:22:03;5.30;99.90
8684;DHT22;4379;59.744;18.206;2023-04-24T12:24:32;5.30;99.90
8684;DHT22;4379;59.744;18.206;2023-04-24T12:26:59;5.40;99.90
8684;DHT22;4379;59.744;18.206;2023-04-24T12:29:31;5.20;99.90
8684;DHT22;4379;59.744;18.206;2023-04-24T12:31:59;5.10;99.90
8684;DHT22;4379;59.744;18.206;2023-04-24T12:34:26;5.00;99.90
8684;DHT22;4379;59.744;18.206;2023-04-24T12:36:53;5.30;99.90
8684;DHT22;4379;59.744;18.206;2023-04-24T12:39:21;5.30;99.90
8684;DHT22;4379;59.744;18.206;2023-04-24T12:41:57;5.60;99.90
8684;DHT22;4379;59.744;18.206;2023-04-24T12:44:30;5.30;99.90
8684;DHT22;4379;59.744;18.206;2023-04-24T12:46:58;5.50;99.90
8684;DHT22;4379;59.744;18.206;2023-04-24T12:49:27;5.10;99.90
8684;DHT22;4379;59.744;18.206;2023-04-24T12:51:55;5.30;99.90
8684;DHT22;4379;59.744;18.206;2023-04-24T12:54:22;5.40;99.90
8684;DHT22;4379;59.744;18.206;2023-04-24T12:56:50;5.50;99.90
8684;DHT22;4379;59.744;18.206;2023-04-24T12:59:20;5.70;99.90
8684;DHT22;4379;59.744;18.206;2023-04-24T13:01:47;5.90;99.90
8684;DHT22;4379;59.744;18.206;2023-04-24T13:04:15;5.50;99.90
8684;DHT22;4379;59.744;18.206;2023-04-24T13:06:44;5.40;99.90
8684;DHT22;4379;59.744;18.206;2023-04-24T13:09:11;5.20;99.90
8684;DHT22;4379;59.744;18.206;2023-04-24T13:11:41;5.30;99.90
8684;DHT22;4379;59.744;18.206;2023-04-24T13:14:09;5.10;99.90
8684;DHT22;4379;59.744;18.206;2023-04-24T13:16:36;5.10;99.90
8684;DHT22;4379;59.744;18.206;2023-04-24T13:19:04;5.40;99.90
8684;DHT22;4379;59.744;18.206;2023-04-24T13:21:31;5.40;99.90
8684;DHT22;4379;59.744;18.206;2023-04-24T13:23:59;5.20;99.90
8684;DHT22;4379;59.744;18.206;2023-04-24T13:26:26;5.20;99.90
8684;DHT22;4379;59.744;18.206;2023-04-24T13:28:54;5.40;99.90
8684;DHT22;4379;59.744;18.206;2023-04-24T13:31:22;5.60;99.90
8684;DHT22;4379;59.744;18.206;2023-04-24T13:33:49;5.80;99.90
8684;DHT22;4379;59.744;18.206;2023-04-24T13:36:17;5.70;99.90
8684;DHT22;4379;59.744;18.206;2023-04-24T13:38:44;5.60;99.90
8684;DHT22;4379;59.744;18.206;2023-04-24T13:41:12;5.40;99.90
8684;DHT22;4379;59.744;18.206;2023-04-24T13:43:39;5.20;99.90
8684;DHT22;4379;59.744;18.206;2023-04-24T13:46:10;5.40;99.90
8684;DHT22;4379;59.744;18.206;2023-04-24T13:48:37;5.40;99.90
8684;DHT22;4379;59.744;18.206;2023-04-24T13:51:05;5.60;99.90
8684;DHT22;4379;59.744;18.206;2023-04-24T13:53:32;5.60;99.90
8684;DHT22;4379;59.744;18.206;2023-04-24T13:56:03;5.30;99.90
8684;DHT22;4379;59.744;18.206;2023-04-24T13:58:30;5.60;99.90
8684;DHT22;4379;59.744;18.206;2023-04-24T14:00:58;5.60;99.90
8684;DHT22;4379;59.744;18.206;2023-04-24T14:03:25;5.50;99.90
8684;DHT22;4379;59.744;18.206;2023-04-24T14:05:53;5.10;99.90
8684;DHT22;4379;59.744;18.206;2023-04-24T14:08:21;5.00;99.90
8684;DHT22;4379;59.744;18.206;2023-04-24T14:10:48;5.00;99.90
8684;DHT22;4379;59.744;18.206;2023-04-24T14:13:16;5.00;99.90
8684;DHT22;4379;59.744;18.206;2023-04-24T14:15:43;5.00;99.90
8684;DHT22;4379;59.744;18.206;2023-04-24T14:18:11;4.90;99.90
8684;DHT22;4379;59.744;18.206;2023-04-24T14:20:39;5.00;99.90
8684;DHT22;4379;59.744;18.206;2023-04-24T14:23:06;5.10;99.90
8684;DHT22;4379;59.744;18.206;2023-04-24T14:25:35;4.90;99.90
8684;DHT22;4379;59.744;18.206;2023-04-24T14:28:06;4.60;99.90
8684;DHT22;4379;59.744;18.206;2023-04-24T14:30:36;4.30;99.90
8684;DHT22;4379;59.744;18.206;2023-04-24T14:33:04;4.50;99.90
8684;DHT22;4379;59.744;18.206;2023-04-24T14:35:35;4.50;99.90
8684;DHT22;4379;59.744;18.206;2023-04-24T14:38:02;4.50;99.90
8684;DHT22;4379;59.744;18.206;2023-04-24T14:40:30;4.60;99.90
8684;DHT22;4379;59.744;18.206;2023-04-24T14:43:18;4.60;99.90
8684;DHT22;4379;59.744;18.206;2023-04-24T14:45:45;4.40;99.90
8684;DHT22;4379;59.744;18.206;2023-04-24T14:48:13;4.60;99.90
8684;DHT22;4379;59.744;18.206;2023-04-24T14:50:44;4.90;99.90
8684;DHT22;4379;59.744;18.206;2023-04-24T14:53:12;4.80;99.90
8684;DHT22;4379;59.744;18.206;2023-04-24T14:55:40;4.40;99.90
8684;DHT22;4379;59.744;18.206;2023-04-24T14:58:07;4.50;99.90
8684;DHT22;4379;59.744;18.206;2023-04-24T15:00:35;4.60;99.90
8684;DHT22;4379;59.744;18.206;2023-04-24T15:03:02;4.50;99.90
8684;DHT22;4379;59.744;18.206;2023-04-24T15:05:31;4.50;99.90
8684;DHT22;4379;59.744;18.206;2023-04-24T15:07:59;4.30;99.90
8684;DHT22;4379;59.744;18.206;2023-04-24T15:10:26;4.40;99.90
8684;DHT22;4379;59.744;18.206;2023-04-24T15:12:54;4.40;99.90
8684;DHT22;4379;59.744;18.206;2023-04-24T15:15:22;4.50;99.90
8684;DHT22;4379;59.744;18.206;2023-04-24T15:17:49;4.70;99.90
8684;DHT22;4379;59.744;18.206;2023-04-24T15:20:17;4.80;99.90
8684;DHT22;4379;59.744;18.206;2023-04-24T15:22:45;4.90;99.90
8684;DHT22;4379;59.744;18.206;2023-04-24T15:25:13;4.60;99.90
8684;DHT22;4379;59.744;18.206;2023-04-24T15:27:44;4.40;99.90
8684;DHT22;4379;59.744;18.206;2023-04-24T15:30:12;4.30;99.90
8684;DHT22;4379;59.744;18.206;2023-04-24T15:32:40;4.40;99.90
8684;DHT22;4379;59.744;18.206;2023-04-24T15:35:08;4.10;99.90
8684;DHT22;4379;59.744;18.206;2023-04-24T15:37:38;4.00;99.90
8684;DHT22;4379;59.744;18.206;2023-04-24T15:40:06;3.90;99.90
8684;DHT22;4379;59.744;18.206;2023-04-24T15:42:35;3.90;99.90
8684;DHT22;4379;59.744;18.206;2023-04-24T15:45:03;3.80;99.90
8684;DHT22;4379;59.744;18.206;2023-04-24T15:47:32;3.90;99.90
8684;DHT22;4379;59.744;18.206;2023-04-24T15:50:00;4.00;99.90
8684;DHT22;4379;59.744;18.206;2023-04-24T15:52:28;4.10;99.90
8684;DHT22;4379;59.744;18.206;2023-04-24T15:54:55;4.00;99.90
8684;DHT22;4379;59.744;18.206;2023-04-24T15:57:22;3.90;99.90
8684;DHT22;4379;59.744;18.206;2023-04-24T15:59:50;3.70;99.90
8684;DHT22;4379;59.744;18.206;2023-04-24T16:02:17;3.80;99.90
8684;DHT22;4379;59.744;18.206;2023-04-24T16:04:48;3.90;99.90
8684;DHT22;4379;59.744;18.206;2023-04-24T16:07:16;3.90;99.90
8684;DHT22;4379;59.744;18.206;2023-04-24T16:09:46;4.00;99.90
8684;DHT22;4379;59.744;18.206;2023-04-24T16:12:14;4.00;99.90
8684;DHT22;4379;59.744;18.206;2023-04-24T16:14:42;4.00;99.90